Delta Ocean — SVAU9 — position and weather

sailwx.info

Track history (hours):
 
Tides and Currents Weather Stations Pressure Air Temp Water Temp Dewpoint Dewpoint Depression Visibility Wind Speed Wind Dir Waves Ship Positions

Delta Ocean

Last reported at 2016-May-31 14:22 UTC. Time now 2016-Jun-30 15:59 UTC.
Position S 34°20' E 017°55'.
Warning: this ship's position is 30 days out of date.

Length 274 m; draft 9 m.

Type: Tanker. MMSI: 240958000.

Date/timePositionNaut miles runAvg speedWind from/ knotsBaromVisibWave heightAir tempDewpointWater temp
2016-May-31 14:22S 34°20' E 017°55'65 8.2
2016-May-31 06:32S 34°52' E 019°02'  
2016-May-28 12:34S 30°48' E 030°44'1111.2
2016-May-28 11:34S 30°39' E 030°50'1111.2
2016-May-28 10:33S 30°28' E 030°55'1111.5
2016-May-28 09:34S 30°17' E 030°59'1111.3
2016-May-28 08:33S 30°07' E 031°03'1111.0
2016-May-28 07:34S 29°56' E 031°08'7 7.2
2016-May-28 06:33S 29°49' E 031°09'0 0.3
2016-May-28 05:34S 29°49' E 031°10'10 9.6
2016-May-28 04:33S 29°39' E 031°11'0 0.5
2016-May-28 03:32S 29°39' E 031°10'0 0.0
2016-May-28 02:32S 29°39' E 031°10'0 0.1
2016-May-28 01:32S 29°39' E 031°10'0 0.0
2016-May-28 00:32S 29°39' E 031°10'0 0.1
2016-May-27 23:32S 29°39' E 031°10'0 0.0
2016-May-27 22:32S 29°39' E 031°10'0 0.0
2016-May-27 21:32S 29°39' E 031°10'0 0.0
2016-May-27 20:32S 29°39' E 031°10'0 0.1
2016-May-27 19:32S 29°39' E 031°10'5 5.3
2016-May-27 18:33S 29°44' E 031°12'1110.6
2016-May-27 17:33S 29°54' E 031°08'1110.6
2016-May-27 16:33S 30°01' E 030°59'1 0.5
2016-May-27 15:32S 30°00' E 030°58'0 0.0
2016-May-27 14:32S 30°00' E 030°58'0 0.1
2016-May-27 13:32S 30°00' E 030°58'0 0.0
2016-May-27 12:32S 30°00' E 030°58'0 0.0
2016-May-27 11:32S 30°00' E 030°58'0 0.0
2016-May-27 10:32S 30°00' E 030°58'0 0.0
2016-May-27 09:32S 30°00' E 030°58'0 0.0
2016-May-27 08:26S 30°00' E 030°58'0 0.0
2016-May-27 07:32S 30°00' E 030°58'0 0.0
2016-May-27 06:32S 30°00' E 030°58'0 0.0
2016-May-27 05:29S 30°00' E 030°58'0 0.0
2016-May-27 04:32S 30°00' E 030°58'0 0.0
2016-May-27 03:32S 30°00' E 030°58'0 0.0
2016-May-27 02:32S 30°00' E 030°58'0 0.0
2016-May-27 01:32S 30°00' E 030°58'0 0.0
2016-May-27 00:32S 30°00' E 030°58'0 0.0
2016-May-26 23:32S 30°00' E 030°58'0 0.0
2016-May-26 22:32S 30°00' E 030°58'0 0.0
2016-May-26 21:32S 30°00' E 030°58'0 0.0
2016-May-26 20:29S 30°00' E 030°58'0 0.0
2016-May-26 19:32S 30°00' E 030°58'0 0.0
2016-May-26 18:32S 30°00' E 030°58'0 0.0
2016-May-26 17:32S 30°00' E 030°58'0 0.0
2016-May-26 16:32S 30°00' E 030°58'0 0.0
2016-May-26 15:32S 30°00' E 030°58'0 0.4
2016-May-26 14:33S 30°00' E 030°59'4 4.0
2016-May-26 13:34S 29°58' E 031°03'3 3.2
2016-May-26 12:33S 29°58' E 031°06'0 0.5
2016-May-26 11:33S 29°58' E 031°06'1 0.6
2016-May-26 10:33S 29°59' E 031°06'1 0.6
2016-May-26 09:33S 29°59' E 031°06'1 0.7
2016-May-26 08:33S 29°60' E 031°06'1 0.8
2016-May-26 07:33S 30°00' E 031°05'1 0.8
2016-May-26 06:33S 30°01' E 031°05'1 1.3
2016-May-26 05:33S 30°03' E 031°05'2 2.0
2016-May-26 04:33S 30°01' E 031°06'3 2.6
2016-May-26 03:30S 29°58' E 031°06'1 1.2
2016-May-26 02:30S 29°59' E 031°06'1 1.2
2016-May-26 01:33S 30°00' E 031°05'1 1.3
2016-May-26 00:33S 30°02' E 031°05'1 1.2
2016-May-25 23:30S 30°03' E 031°05'1 1.3
2016-May-25 22:33S 30°02' E 031°06'1111.4
2016-May-25 21:33S 29°51' E 031°10'8 7.2
2016-May-25 20:31S 29°44' E 031°07'0 0.1
2016-May-25 19:31S 29°44' E 031°07'0 0.0
2016-May-25 18:31S 29°44' E 031°07'0 0.0
2016-May-25 17:31S 29°44' E 031°07'0 0.0
2016-May-25 16:31S 29°44' E 031°07'0 0.0
2016-May-25 15:31S 29°44' E 031°07'0 0.0
2016-May-25 14:31S 29°44' E 031°07'0 0.0
2016-May-25 13:31S 29°44' E 031°07'0 0.0
2016-May-25 12:31S 29°44' E 031°07'0 0.0
2016-May-25 11:31S 29°44' E 031°07'0 0.0
2016-May-25 10:31S 29°44' E 031°07'0 0.0
2016-May-25 09:31S 29°44' E 031°07'0 0.0
2016-May-25 08:31S 29°44' E 031°07'0 0.0
2016-May-25 07:31S 29°44' E 031°07'0 0.0
2016-May-25 06:31S 29°44' E 031°07'0 0.0
2016-May-25 05:31S 29°44' E 031°07'0 0.0
2016-May-25 04:31S 29°44' E 031°07'0 0.0
2016-May-25 03:31S 29°44' E 031°07'0 0.0
2016-May-25 02:31S 29°44' E 031°07'0 0.0
2016-May-25 01:31S 29°44' E 031°07'0 0.0
2016-May-25 00:31S 29°44' E 031°07'0 0.0
2016-May-24 23:31S 29°44' E 031°07'0 0.0
2016-May-24 22:31S 29°44' E 031°07'0 0.0
2016-May-24 21:31S 29°44' E 031°07'0 0.0
2016-May-24 20:31S 29°44' E 031°07'0 0.1
2016-May-24 19:31S 29°44' E 031°07'0 0.1
2016-May-24 18:31S 29°44' E 031°07'0 0.1
2016-May-24 17:31S 29°44' E 031°07'0 0.2
2016-May-24 16:31S 29°45' E 031°07'0 0.0
2016-May-24 15:31S 29°44' E 031°07'0 0.0
2016-May-24 14:31S 29°44' E 031°07'0 0.0
2016-May-24 13:31S 29°44' E 031°07'0 0.0
2016-May-24 12:31S 29°45' E 031°07'0 0.0
2016-May-24 11:31S 29°44' E 031°07'0 0.0
2016-May-24 10:31S 29°44' E 031°07'0 0.0
2016-May-24 09:31S 29°44' E 031°07'0 0.1
2016-May-24 08:31S 29°45' E 031°07'0 0.1
2016-May-24 07:31S 29°45' E 031°07'0 0.1
2016-May-24 06:31S 29°45' E 031°07'0 0.0
2016-May-23 20:22S 29°45' E 031°07'0 0.0
2016-May-23 19:31S 29°45' E 031°07'0 0.0
2016-May-23 18:31S 29°45' E 031°07'0 0.0
2016-May-23 17:31S 29°45' E 031°07'0 0.0
2016-May-23 16:31S 29°45' E 031°07'0 0.0
2016-May-23 15:31S 29°45' E 031°07'0 0.0
2016-May-23 14:31S 29°45' E 031°07'0 0.0
2016-May-23 13:31S 29°45' E 031°07'0 0.0
2016-May-23 12:31S 29°45' E 031°07'0 0.0
2016-May-23 11:31S 29°45' E 031°07'0 0.0
2016-May-23 10:31S 29°45' E 031°07'0 0.0
2016-May-23 09:31S 29°45' E 031°07'0 0.0
2016-May-23 08:31S 29°45' E 031°07'0 0.0
2016-May-23 07:31S 29°45' E 031°07'0 0.0
2016-May-23 06:31S 29°45' E 031°07'0 0.0
2016-May-23 05:31S 29°45' E 031°07'  
Track history (hours):
 
Tides and Currents Weather Stations Pressure Air Temp Water Temp Dewpoint Dewpoint Depression Visibility Wind Speed Wind Dir Waves Ship Positions

Delta Ocean

Last reported at 2016-May-31 14:22 UTC. Time now 2016-Jun-30 15:59 UTC.
Position S 34°20' E 017°55'.
Warning: this ship's position is 30 days out of date.

Length 274 m; draft 9 m.

Type: Tanker. MMSI: 240958000.

Date/timePositionNaut miles runAvg speedWind from/ knotsBaromVisibWave heightAir tempDewpointWater temp
2016-May-31 14:22S 34°20' E 017°55'65 8.2
2016-May-31 06:32S 34°52' E 019°02'  
2016-May-28 12:34S 30°48' E 030°44'1111.2
2016-May-28 11:34S 30°39' E 030°50'1111.2
2016-May-28 10:33S 30°28' E 030°55'1111.5
2016-May-28 09:34S 30°17' E 030°59'1111.3
2016-May-28 08:33S 30°07' E 031°03'1111.0
2016-May-28 07:34S 29°56' E 031°08'7 7.2
2016-May-28 06:33S 29°49' E 031°09'0 0.3
2016-May-28 05:34S 29°49' E 031°10'10 9.6
2016-May-28 04:33S 29°39' E 031°11'0 0.5
2016-May-28 03:32S 29°39' E 031°10'0 0.0
2016-May-28 02:32S 29°39' E 031°10'0 0.1
2016-May-28 01:32S 29°39' E 031°10'0 0.0
2016-May-28 00:32S 29°39' E 031°10'0 0.1
2016-May-27 23:32S 29°39' E 031°10'0 0.0
2016-May-27 22:32S 29°39' E 031°10'0 0.0
2016-May-27 21:32S 29°39' E 031°10'0 0.0
2016-May-27 20:32S 29°39' E 031°10'0 0.1
2016-May-27 19:32S 29°39' E 031°10'5 5.3
2016-May-27 18:33S 29°44' E 031°12'1110.6
2016-May-27 17:33S 29°54' E 031°08'1110.6
2016-May-27 16:33S 30°01' E 030°59'1 0.5
2016-May-27 15:32S 30°00' E 030°58'0 0.0
2016-May-27 14:32S 30°00' E 030°58'0 0.1
2016-May-27 13:32S 30°00' E 030°58'0 0.0
2016-May-27 12:32S 30°00' E 030°58'0 0.0
2016-May-27 11:32S 30°00' E 030°58'0 0.0
2016-May-27 10:32S 30°00' E 030°58'0 0.0
2016-May-27 09:32S 30°00' E 030°58'0 0.0
2016-May-27 08:26S 30°00' E 030°58'0 0.0
2016-May-27 07:32S 30°00' E 030°58'0 0.0
2016-May-27 06:32S 30°00' E 030°58'0 0.0
2016-May-27 05:29S 30°00' E 030°58'0 0.0
2016-May-27 04:32S 30°00' E 030°58'0 0.0
2016-May-27 03:32S 30°00' E 030°58'0 0.0
2016-May-27 02:32S 30°00' E 030°58'0 0.0
2016-May-27 01:32S 30°00' E 030°58'0 0.0
2016-May-27 00:32S 30°00' E 030°58'0 0.0
2016-May-26 23:32S 30°00' E 030°58'0 0.0
2016-May-26 22:32S 30°00' E 030°58'0 0.0
2016-May-26 21:32S 30°00' E 030°58'0 0.0
2016-May-26 20:29S 30°00' E 030°58'0 0.0
2016-May-26 19:32S 30°00' E 030°58'0 0.0
2016-May-26 18:32S 30°00' E 030°58'0 0.0
2016-May-26 17:32S 30°00' E 030°58'0 0.0
2016-May-26 16:32S 30°00' E 030°58'0 0.0
2016-May-26 15:32S 30°00' E 030°58'0 0.4
2016-May-26 14:33S 30°00' E 030°59'4 4.0
2016-May-26 13:34S 29°58' E 031°03'3 3.2
2016-May-26 12:33S 29°58' E 031°06'0 0.5
2016-May-26 11:33S 29°58' E 031°06'1 0.6
2016-May-26 10:33S 29°59' E 031°06'1 0.6
2016-May-26 09:33S 29°59' E 031°06'1 0.7
2016-May-26 08:33S 29°60' E 031°06'1 0.8
2016-May-26 07:33S 30°00' E 031°05'1 0.8
2016-May-26 06:33S 30°01' E 031°05'1 1.3
2016-May-26 05:33S 30°03' E 031°05'2 2.0
2016-May-26 04:33S 30°01' E 031°06'3 2.6
2016-May-26 03:30S 29°58' E 031°06'1 1.2
2016-May-26 02:30S 29°59' E 031°06'1 1.2
2016-May-26 01:33S 30°00' E 031°05'1 1.3
2016-May-26 00:33S 30°02' E 031°05'1 1.2
2016-May-25 23:30S 30°03' E 031°05'1 1.3
2016-May-25 22:33S 30°02' E 031°06'1111.4
2016-May-25 21:33S 29°51' E 031°10'8 7.2
2016-May-25 20:31S 29°44' E 031°07'0 0.1
2016-May-25 19:31S 29°44' E 031°07'0 0.0
2016-May-25 18:31S 29°44' E 031°07'0 0.0
2016-May-25 17:31S 29°44' E 031°07'0 0.0
2016-May-25 16:31S 29°44' E 031°07'0 0.0
2016-May-25 15:31S 29°44' E 031°07'0 0.0
2016-May-25 14:31S 29°44' E 031°07'0 0.0
2016-May-25 13:31S 29°44' E 031°07'0 0.0
2016-May-25 12:31S 29°44' E 031°07'0 0.0
2016-May-25 11:31S 29°44' E 031°07'0 0.0
2016-May-25 10:31S 29°44' E 031°07'0 0.0
2016-May-25 09:31S 29°44' E 031°07'0 0.0
2016-May-25 08:31S 29°44' E 031°07'0 0.0
2016-May-25 07:31S 29°44' E 031°07'0 0.0
2016-May-25 06:31S 29°44' E 031°07'0 0.0
2016-May-25 05:31S 29°44' E 031°07'0 0.0
2016-May-25 04:31S 29°44' E 031°07'0 0.0
2016-May-25 03:31S 29°44' E 031°07'0 0.0
2016-May-25 02:31S 29°44' E 031°07'0 0.0
2016-May-25 01:31S 29°44' E 031°07'0 0.0
2016-May-25 00:31S 29°44' E 031°07'0 0.0
2016-May-24 23:31S 29°44' E 031°07'0 0.0
2016-May-24 22:31S 29°44' E 031°07'0 0.0
2016-May-24 21:31S 29°44' E 031°07'0 0.0
2016-May-24 20:31S 29°44' E 031°07'0 0.1
2016-May-24 19:31S 29°44' E 031°07'0 0.1
2016-May-24 18:31S 29°44' E 031°07'0 0.1
2016-May-24 17:31S 29°44' E 031°07'0 0.2
2016-May-24 16:31S 29°45' E 031°07'0 0.0
2016-May-24 15:31S 29°44' E 031°07'0 0.0
2016-May-24 14:31S 29°44' E 031°07'0 0.0
2016-May-24 13:31S 29°44' E 031°07'0 0.0
2016-May-24 12:31S 29°45' E 031°07'0 0.0
2016-May-24 11:31S 29°44' E 031°07'0 0.0
2016-May-24 10:31S 29°44' E 031°07'0 0.0
2016-May-24 09:31S 29°44' E 031°07'0 0.1
2016-May-24 08:31S 29°45' E 031°07'0 0.1
2016-May-24 07:31S 29°45' E 031°07'0 0.1
2016-May-24 06:31S 29°45' E 031°07'0 0.0
2016-May-23 20:22S 29°45' E 031°07'0 0.0
2016-May-23 19:31S 29°45' E 031°07'0 0.0
2016-May-23 18:31S 29°45' E 031°07'0 0.0
2016-May-23 17:31S 29°45' E 031°07'0 0.0
2016-May-23 16:31S 29°45' E 031°07'0 0.0
2016-May-23 15:31S 29°45' E 031°07'0 0.0
2016-May-23 14:31S 29°45' E 031°07'0 0.0
2016-May-23 13:31S 29°45' E 031°07'0 0.0
2016-May-23 12:31S 29°45' E 031°07'0 0.0
2016-May-23 11:31S 29°45' E 031°07'0 0.0
2016-May-23 10:31S 29°45' E 031°07'0 0.0
2016-May-23 09:31S 29°45' E 031°07'0 0.0
2016-May-23 08:31S 29°45' E 031°07'0 0.0
2016-May-23 07:31S 29°45' E 031°07'0 0.0
2016-May-23 06:31S 29°45' E 031°07'0 0.0
2016-May-23 05:31S 29°45' E 031°07'  

Dump ship's entire track history